Time;durP1;ratioP1;P1;durP2;ratioP2;P2;SDS_P1;SDS_P2;PMS_P1;PMS_P2;Temp;Humidity;BMP_temperature;BMP_pressure;BME280_temperature;BME280_humidity;BME280_pressure;Samples;Min_cycle;Max_cycle;Signal;HPM_P1;HPM_P2
2023/02/12 00:01:16;;;;;;;7.18;3.13;;;27.50;59.90;;;;;;4132353;28;20046;-49
2023/02/12 00:03:39;;;;;;;8.33;3.00;;;27.50;60.00;;;;;;4137636;28;20053;-43
2023/02/12 00:06:02;;;;;;;7.25;3.20;;;27.50;59.90;;;;;;4138393;28;20412;-43
2023/02/12 00:08:25;;;;;;;8.73;2.47;;;27.50;59.90;;;;;;4134705;28;20042;-44
2023/02/12 00:10:47;;;;;;;5.13;2.63;;;27.60;59.90;;;;;;4135438;28;20132;-43
2023/02/12 00:13:11;;;;;;;12.25;3.60;;;27.50;59.90;;;;;;4132530;28;20049;-50
2023/02/12 00:15:33;;;;;;;9.77;3.20;;;27.50;60.00;;;;;;4138702;28;20136;-44
2023/02/12 00:17:56;;;;;;;11.50;3.40;;;27.60;60.00;;;;;;4137862;28;20401;-45
2023/02/12 00:20:18;;;;;;;9.98;3.03;;;27.60;59.80;;;;;;4137650;28;20041;-49
2023/02/12 00:22:40;;;;;;;7.07;2.95;;;27.60;59.80;;;;;;4139924;28;20037;-43
2023/02/12 00:25:04;;;;;;;6.90;2.90;;;27.60;59.60;;;;;;4138381;28;20479;-46
2023/02/12 00:27:26;;;;;;;6.13;2.88;;;27.60;59.50;;;;;;4134717;28;20107;-43
2023/02/12 00:29:49;;;;;;;7.15;2.58;;;27.70;59.60;;;;;;4134822;28;20042;-44
2023/02/12 00:32:13;;;;;;;5.82;2.70;;;27.60;59.50;;;;;;4138151;28;20052;-44
2023/02/12 00:34:35;;;;;;;6.03;2.92;;;27.60;59.60;;;;;;4129313;28;20069;-42
2023/02/12 00:36:58;;;;;;;8.38;2.90;;;27.70;60.20;;;;;;4132139;28;20057;-49
2023/02/12 00:39:20;;;;;;;4.43;2.50;;;27.70;60.50;;;;;;4137654;28;20052;-44
2023/02/12 00:41:43;;;;;;;9.90;3.10;;;27.70;60.60;;;;;;4131709;28;20142;-44
2023/02/12 00:44:05;;;;;;;8.48;2.70;;;27.70;60.60;;;;;;4137845;28;20045;-42
2023/02/12 00:46:28;;;;;;;5.43;2.60;;;27.80;60.70;;;;;;4134379;28;20058;-41
2023/02/12 00:48:50;;;;;;;5.78;2.40;;;27.80;60.80;;;;;;4135602;28;20121;-44
2023/02/12 00:51:13;;;;;;;4.47;2.30;;;27.80;60.80;;;;;;4134102;28;20053;-42
2023/02/12 00:53:36;;;;;;;7.82;2.67;;;27.90;60.80;;;;;;4137744;28;20117;-46
2023/02/12 00:55:59;;;;;;;5.13;2.38;;;27.90;60.80;;;;;;4129643;28;20054;-41
2023/02/12 00:58:21;;;;;;;4.18;2.05;;;27.90;60.80;;;;;;4134639;28;20442;-42
2023/02/12 01:00:44;;;;;;;9.48;3.05;;;28.00;60.80;;;;;;4129951;28;20049;-43
2023/02/12 01:03:06;;;;;;;8.65;3.42;;;28.00;61.00;;;;;;4137088;28;20509;-42
2023/02/12 01:05:29;;;;;;;6.95;3.03;;;28.00;60.80;;;;;;4133530;28;20172;-43
2023/02/12 01:07:53;;;;;;;9.65;3.35;;;28.00;60.80;;;;;;4134615;28;20061;-45
2023/02/12 01:10:16;;;;;;;10.80;3.30;;;28.10;60.80;;;;;;4134791;28;20038;-43
2023/02/12 01:12:38;;;;;;;9.23;2.80;;;28.10;60.80;;;;;;4135969;28;20112;-45
2023/02/12 01:15:02;;;;;;;11.55;3.00;;;28.10;60.80;;;;;;4136147;28;20050;-44
2023/02/12 01:17:25;;;;;;;13.35;3.65;;;28.10;60.80;;;;;;4136563;28;20048;-41
2023/02/12 01:19:47;;;;;;;13.17;3.57;;;28.10;60.90;;;;;;4131157;28;20396;-41
2023/02/12 01:22:09;;;;;;;10.82;3.22;;;28.20;60.70;;;;;;4137233;28;20412;-40
2023/02/12 01:24:32;;;;;;;10.95;3.42;;;28.20;60.50;;;;;;4130286;28;20030;-41
2023/02/12 01:26:54;;;;;;;9.55;2.70;;;28.30;60.30;;;;;;4139942;28;20568;-44
2023/02/12 01:29:17;;;;;;;10.68;2.53;;;28.30;60.00;;;;;;4135012;28;20035;-41
2023/02/12 01:31:41;;;;;;;6.55;2.60;;;28.30;59.80;;;;;;4137454;28;20539;-43
2023/02/12 01:34:05;;;;;;;8.27;2.55;;;28.40;59.70;;;;;;4142077;28;20041;-41
2023/02/12 01:36:29;;;;;;;8.77;2.35;;;28.40;59.50;;;;;;4140694;28;20050;-41
2023/02/12 01:38:51;;;;;;;18.85;2.88;;;28.40;59.40;;;;;;4135653;28;20088;-43
2023/02/12 01:41:23;;;;;;;5.53;2.33;;;28.40;59.20;;;;;;4137842;28;20040;-42
2023/02/12 01:44:04;;;;;;;4.90;2.13;;;28.40;59.10;;;;;;4135557;28;20046;-42
2023/02/12 01:46:26;;;;;;;5.18;1.88;;;28.40;58.80;;;;;;4136466;28;20050;-42
2023/02/12 01:48:49;;;;;;;5.07;2.00;;;28.40;58.80;;;;;;4135678;28;20030;-42
2023/02/12 01:51:16;;;;;;;4.53;2.30;;;28.40;58.60;;;;;;4139144;28;20424;-41
2023/02/12 01:53:45;;;;;;;6.00;2.53;;;28.50;58.50;;;;;;4138813;28;20573;-42
2023/02/12 01:56:08;;;;;;;3.53;1.98;;;28.50;58.40;;;;;;4136093;28;20100;-41
2023/02/12 01:58:36;;;;;;;4.47;2.03;;;28.50;58.20;;;;;;4136583;28;20042;-41
2023/02/12 02:01:01;;;;;;;4.57;2.10;;;28.50;58.30;;;;;;4135929;28;20052;-44
2023/02/12 02:03:24;;;;;;;4.15;1.85;;;28.50;58.20;;;;;;4134278;28;20170;-44
2023/02/12 02:06:20;;;;;;;4.57;2.20;;;28.40;58.00;;;;;;4132479;28;20514;-42
2023/02/12 02:08:43;;;;;;;4.90;2.15;;;28.50;58.10;;;;;;4127018;28;20056;-45
2023/02/12 02:14:31;;;;;;;5.85;2.30;;;28.50;58.50;;;;;;4129681;28;20042;-42
2023/02/12 02:16:30;;;;;;;4.88;2.00;;;28.50;57.80;;;;;;4131034;28;20054;-42
2023/02/12 02:19:36;;;;;;;3.70;1.77;;;28.50;57.80;;;;;;4134367;28;20204;-41
2023/02/12 02:22:15;;;;;;;4.13;1.70;;;28.50;57.80;;;;;;4121054;28;20042;-42
2023/02/12 02:25:06;;;;;;;3.97;2.10;;;28.40;57.60;;;;;;4127693;28;20336;-42
2023/02/12 02:27:56;;;;;;;3.85;1.83;;;28.50;57.70;;;;;;4134404;28;20084;-42
2023/02/12 02:30:21;;;;;;;3.25;1.73;;;28.50;57.70;;;;;;4135198;28;20494;-43
2023/02/12 02:33:24;;;;;;;4.68;2.22;;;28.50;57.60;;;;;;4130372;28;20030;-42
2023/02/12 02:35:52;;;;;;;3.53;1.73;;;28.50;57.50;;;;;;4133807;28;20453;-43
2023/02/12 02:38:31;;;;;;;3.97;2.30;;;28.50;57.60;;;;;;4134457;28;20045;-40
2023/02/12 02:41:07;;;;;;;2.85;1.40;;;28.50;57.60;;;;;;4124407;28;20045;-45
2023/02/12 02:43:38;;;;;;;2.55;1.58;;;28.60;57.50;;;;;;4125654;28;20049;-43
2023/02/12 02:46:15;;;;;;;3.58;1.65;;;28.60;57.40;;;;;;4131784;28;20046;-46
2023/02/12 02:48:48;;;;;;;5.15;2.10;;;28.60;57.40;;;;;;4135061;28;20053;-42
2023/02/12 02:51:15;;;;;;;3.47;1.77;;;28.60;57.40;;;;;;4132234;28;20128;-40
2023/02/12 02:54:13;;;;;;;3.65;1.90;;;28.60;57.40;;;;;;4132690;28;20496;-45
2023/02/12 02:56:40;;;;;;;3.33;1.65;;;28.60;57.40;;;;;;4101115;28;20046;-42
2023/02/12 02:59:07;;;;;;;4.30;2.05;;;28.60;57.30;;;;;;4131912;28;20037;-42
2023/02/12 03:01:56;;;;;;;3.67;1.63;;;28.60;57.30;;;;;;4127005;28;20451;-44
2023/02/12 03:04:31;;;;;;;2.88;1.38;;;28.60;57.20;;;;;;4135823;28;20299;-41
2023/02/12 03:07:01;;;;;;;3.33;1.77;;;28.70;57.20;;;;;;4135889;28;20037;-44
2023/02/12 03:09:45;;;;;;;2.67;1.48;;;28.70;57.20;;;;;;4134680;28;20421;-43
2023/02/12 03:12:39;;;;;;;3.45;1.38;;;28.70;57.20;;;;;;4129229;28;20050;-41
2023/02/12 03:15:11;;;;;;;3.72;1.63;;;28.70;57.20;;;;;;4121975;28;20050;-41
2023/02/12 03:17:39;;;;;;;3.63;1.80;;;28.70;56.60;;;;;;4132640;28;20042;-43
2023/02/12 03:20:23;;;;;;;1.90;1.40;;;28.70;57.00;;;;;;4135061;28;20069;-42
2023/02/12 03:22:57;;;;;;;2.45;1.30;;;28.70;57.00;;;;;;4132864;28;20453;-44
2023/02/12 03:25:30;;;;;;;3.17;1.33;;;28.70;57.00;;;;;;4135255;28;20069;-42
2023/02/12 03:28:24;;;;;;;3.00;1.80;;;28.70;57.00;;;;;;4125082;28;20042;-41
2023/02/12 03:31:11;;;;;;;2.40;1.65;;;28.70;57.00;;;;;;4127712;28;20038;-42
2023/02/12 03:33:59;;;;;;;4.68;1.67;;;28.70;57.00;;;;;;4134757;28;20050;-42
2023/02/12 03:36:45;;;;;;;3.47;1.75;;;28.80;57.00;;;;;;4132772;28;20071;-44
2023/02/12 03:39:51;;;;;;;2.72;1.50;;;28.80;57.00;;;;;;4138611;28;20052;-43
2023/02/12 03:42:23;;;;;;;4.05;1.85;;;28.80;57.50;;;;;;4135657;28;20069;-42
2023/02/12 03:45:06;;;;;;;4.72;1.95;;;28.80;56.80;;;;;;4137506;28;20069;-44
2023/02/12 03:47:47;;;;;;;3.42;1.45;;;28.90;56.90;;;;;;4127845;28;20053;-42
2023/02/12 03:50:46;;;;;;;4.68;1.92;;;28.90;56.80;;;;;;4129619;28;20125;-45
2023/02/12 03:53:09;;;;;;;2.45;1.55;;;28.90;56.90;;;;;;4139524;28;20042;-41
2023/02/12 03:55:36;;;;;;;3.05;1.58;;;28.90;56.90;;;;;;4138757;28;20042;-45
2023/02/12 03:58:02;;;;;;;3.15;1.63;;;28.90;56.80;;;;;;4141110;28;20049;-41
2023/02/12 04:00:25;;;;;;;4.10;1.70;;;28.90;56.80;;;;;;4130517;28;20076;-41
2023/02/12 04:02:48;;;;;;;2.78;1.58;;;28.90;56.90;;;;;;4128169;28;20585;-43
2023/02/12 04:05:22;;;;;;;2.45;1.70;;;28.90;56.80;;;;;;4137186;28;20120;-43
2023/02/12 04:07:45;;;;;;;4.03;1.98;;;28.90;56.80;;;;;;4134631;28;20409;-41
2023/02/12 04:10:12;;;;;;;2.53;1.67;;;28.90;56.80;;;;;;4137356;28;20132;-45
2023/02/12 04:13:03;;;;;;;3.53;1.55;;;28.90;56.80;;;;;;4134829;28;20092;-45
2023/02/12 04:15:45;;;;;;;3.03;1.75;;;28.90;56.90;;;;;;4138704;28;20034;-42
2023/02/12 04:18:14;;;;;;;4.00;1.80;;;29.00;56.90;;;;;;4137573;28;20038;-46
2023/02/12 04:21:19;;;;;;;3.63;1.60;;;29.00;56.90;;;;;;4128791;28;20121;-42
2023/02/12 04:24:06;;;;;;;4.22;1.80;;;29.00;56.80;;;;;;4137423;28;20041;-41
2023/02/12 04:26:37;;;;;;;4.60;2.10;;;29.00;56.80;;;;;;4137317;28;20586;-43
2023/02/12 04:29:14;;;;;;;3.78;1.90;;;29.10;56.80;;;;;;4125650;28;20042;-41
2023/02/12 04:32:16;;;;;;;3.40;2.13;;;29.10;56.80;;;;;;4129264;28;20867;-41
2023/02/12 04:35:09;;;;;;;4.25;1.80;;;29.10;57.20;;;;;;4127537;28;20103;-42
2023/02/12 04:37:58;;;;;;;4.35;1.50;;;29.20;56.70;;;;;;4133790;28;20046;-42
2023/02/12 04:40:22;;;;;;;3.22;1.90;;;29.20;56.60;;;;;;4131308;28;20041;-42
2023/02/12 04:42:45;;;;;;;;;;;29.30;56.60;;;;;;4132546;28;20041;-41
2023/02/12 04:45:14;;;;;;;3.73;1.57;;;29.20;56.50;;;;;;4137800;28;20317;-41
2023/02/12 04:47:36;;;;;;;3.72;1.90;;;29.30;56.50;;;;;;4132714;28;20046;-42
2023/02/12 04:49:59;;;;;;;4.82;2.00;;;29.30;56.50;;;;;;4130330;28;20069;-45
2023/02/12 04:52:21;;;;;;;4.78;2.08;;;29.30;56.40;;;;;;4132162;28;20042;-42
2023/02/12 04:54:44;;;;;;;3.92;1.95;;;29.40;56.40;;;;;;4135551;28;20037;-43
2023/02/12 04:57:06;;;;;;;3.45;1.73;;;29.40;56.30;;;;;;4135964;28;20141;-41
2023/02/12 04:59:28;;;;;;;4.30;1.95;;;29.50;56.30;;;;;;4135919;28;20040;-43
2023/02/12 05:01:51;;;;;;;5.03;2.42;;;29.50;56.30;;;;;;4136158;28;20041;-43
2023/02/12 05:04:16;;;;;;;3.10;2.00;;;29.50;56.10;;;;;;4134812;28;20034;-44
2023/02/12 05:06:39;;;;;;;2.67;1.50;;;29.60;56.20;;;;;;4135491;28;20441;-42
2023/02/12 05:09:01;;;;;;;3.70;2.10;;;29.60;56.10;;;;;;4136948;28;20573;-44
2023/02/12 05:11:24;;;;;;;3.10;1.70;;;29.60;56.10;;;;;;4135761;28;20436;-45
2023/02/12 05:13:54;;;;;;;2.90;1.85;;;29.60;56.00;;;;;;4128495;28;20490;-47
2023/02/12 05:16:16;;;;;;;5.40;2.72;;;29.70;56.00;;;;;;4138060;28;20046;-45
2023/02/12 05:18:39;;;;;;;4.47;2.50;;;29.60;56.70;;;;;;4132902;28;20041;-49
2023/02/12 05:21:04;;;;;;;4.90;2.53;;;29.60;57.20;;;;;;4137881;28;20045;-48
2023/02/12 05:23:30;;;;;;;3.88;2.70;;;29.50;56.20;;;;;;4128941;28;20046;-46
2023/02/12 05:25:53;;;;;;;4.15;2.30;;;29.30;54.60;;;;;;4134033;28;20034;-45
2023/02/12 05:28:15;;;;;;;3.20;2.40;;;29.20;53.60;;;;;;4134807;28;20049;-50
2023/02/12 05:30:38;;;;;;;3.70;2.50;;;29.10;52.90;;;;;;4134232;28;20417;-45
2023/02/12 05:33:01;;;;;;;4.90;2.53;;;29.00;52.40;;;;;;4136242;28;20131;-47
2023/02/12 05:35:23;;;;;;;3.38;2.15;;;28.80;52.00;;;;;;4133568;28;20113;-45
2023/02/12 05:37:46;;;;;;;3.72;2.28;;;28.70;51.90;;;;;;4136997;28;20054;-46
2023/02/12 05:40:09;;;;;;;3.60;2.28;;;28.60;51.40;;;;;;4130657;28;20034;-45
2023/02/12 05:42:31;;;;;;;3.55;2.50;;;28.50;51.20;;;;;;4135556;28;20038;-42
2023/02/12 05:44:54;;;;;;;3.50;2.00;;;28.30;51.20;;;;;;4130340;28;20121;-44
2023/02/12 05:47:16;;;;;;;3.50;2.40;;;28.20;50.90;;;;;;4132284;28;20050;-42
2023/02/12 05:49:38;;;;;;;3.00;2.10;;;28.10;50.80;;;;;;4134976;28;20137;-48
2023/02/12 05:52:01;;;;;;;3.50;2.40;;;28.00;50.80;;;;;;4139749;28;20103;-43
2023/02/12 05:54:23;;;;;;;3.67;2.42;;;27.90;51.30;;;;;;4136259;28;20034;-48
2023/02/12 05:56:47;;;;;;;3.75;2.20;;;27.80;51.30;;;;;;4136286;28;20089;-44
2023/02/12 05:59:15;;;;;;;3.97;2.38;;;27.80;56.10;;;;;;4135396;28;20045;-46
2023/02/12 06:01:43;;;;;;;3.92;2.30;;;27.70;59.10;;;;;;4134670;28;20470;-43
2023/02/12 06:04:08;;;;;;;4.13;2.72;;;27.60;57.10;;;;;;4129962;28;20154;-43
2023/02/12 06:06:32;;;;;;;5.13;2.78;;;27.50;54.80;;;;;;4132781;28;20045;-41
2023/02/12 06:08:55;;;;;;;4.43;2.40;;;27.40;53.60;;;;;;4134727;28;20041;-43
2023/02/12 06:11:19;;;;;;;3.50;2.47;;;27.30;53.30;;;;;;4129018;28;20145;-41
2023/02/12 06:13:41;;;;;;;3.97;2.63;;;27.20;53.10;;;;;;4135754;28;20037;-45
2023/02/12 06:16:04;;;;;;;4.20;2.70;;;27.10;52.60;;;;;;4138441;28;20375;-44
2023/02/12 06:18:27;;;;;;;4.40;2.47;;;27.00;52.70;;;;;;4138992;28;20042;-44
2023/02/12 06:20:50;;;;;;;4.37;2.47;;;26.80;52.70;;;;;;4131969;28;20092;-41
2023/02/12 06:23:12;;;;;;;3.50;2.42;;;26.70;52.60;;;;;;4137861;28;20283;-42
2023/02/12 06:25:35;;;;;;;3.65;2.28;;;26.60;52.70;;;;;;4134665;28;20034;-43
2023/02/12 06:27:57;;;;;;;3.60;2.20;;;26.50;52.90;;;;;;4139034;28;20042;-42
2023/02/12 06:30:19;;;;;;;3.40;2.20;;;26.40;52.50;;;;;;4135193;28;20037;-42
2023/02/12 06:32:42;;;;;;;4.13;2.10;;;26.30;53.10;;;;;;4133117;28;20080;-43
2023/02/12 06:35:05;;;;;;;4.75;2.78;;;26.20;53.10;;;;;;4136710;28;20045;-41
2023/02/12 06:37:27;;;;;;;3.67;2.25;;;26.10;52.50;;;;;;4137121;28;20365;-42
2023/02/12 06:39:49;;;;;;;3.65;2.40;;;26.00;53.00;;;;;;4128016;28;20161;-43
2023/02/12 06:42:12;;;;;;;3.88;2.33;;;25.90;53.60;;;;;;4133219;28;20037;-42
2023/02/12 06:44:34;;;;;;;5.18;2.50;;;25.80;53.80;;;;;;4135930;28;20085;-41
2023/02/12 06:46:57;;;;;;;4.00;2.40;;;25.60;53.90;;;;;;4134304;28;20054;-42
2023/02/12 06:49:20;;;;;;;4.90;2.50;;;25.50;53.50;;;;;;4135694;28;20038;-41
2023/02/12 06:51:42;;;;;;;4.13;2.28;;;25.40;53.60;;;;;;4135742;28;20073;-42
2023/02/12 06:54:05;;;;;;;4.53;2.42;;;25.40;54.30;;;;;;4134282;28;20125;-42
2023/02/12 06:56:27;;;;;;;5.57;2.38;;;25.20;54.30;;;;;;4134141;28;20555;-44
2023/02/12 06:58:56;;;;;;;3.60;2.15;;;25.10;54.60;;;;;;4129664;28;20037;-45
2023/02/12 07:01:21;;;;;;;4.80;2.55;;;25.00;54.30;;;;;;4134568;28;20502;-44
2023/02/12 07:03:49;;;;;;;4.20;2.40;;;25.00;54.50;;;;;;4133353;28;20068;-49
2023/02/12 07:06:11;;;;;;;4.60;2.45;;;24.90;54.60;;;;;;4130960;28;20100;-43
2023/02/12 07:08:34;;;;;;;4.97;2.50;;;24.80;54.50;;;;;;4133977;28;20072;-42
2023/02/12 07:10:56;;;;;;;3.85;2.53;;;24.70;55.20;;;;;;4135112;28;20033;-42
2023/02/12 07:13:18;;;;;;;4.03;2.50;;;24.60;54.60;;;;;;4133043;28;20493;-43
2023/02/12 07:15:41;;;;;;;4.50;2.47;;;24.50;54.40;;;;;;4134114;28;20033;-42
2023/02/12 07:18:03;;;;;;;4.32;2.40;;;24.40;55.40;;;;;;4133536;28;20049;-42
2023/02/12 07:20:26;;;;;;;4.68;2.58;;;24.30;54.90;;;;;;4134972;28;20065;-42
2023/02/12 07:22:48;;;;;;;4.07;2.72;;;24.20;55.60;;;;;;4134019;28;20548;-42
2023/02/12 07:25:10;;;;;;;4.07;2.25;;;24.20;55.20;;;;;;4131360;28;20117;-43
2023/02/12 07:27:37;;;;;;;4.05;2.50;;;24.10;55.30;;;;;;4134504;28;20038;-46
2023/02/12 07:29:59;;;;;;;3.85;2.40;;;24.00;56.00;;;;;;4127415;28;20053;-47
2023/02/12 07:32:21;;;;;;;4.13;2.47;;;23.90;55.20;;;;;;4132765;28;20081;-42
2023/02/12 07:34:44;;;;;;;3.55;2.22;;;23.90;55.30;;;;;;4133926;28;20041;-44
2023/02/12 07:37:06;;;;;;;3.17;2.08;;;23.80;55.50;;;;;;4134415;28;20053;-46
2023/02/12 07:39:29;;;;;;;4.60;2.58;;;23.70;55.50;;;;;;4130016;28;20045;-43
2023/02/12 07:41:51;;;;;;;5.45;2.83;;;23.60;55.90;;;;;;4133444;28;20038;-47
2023/02/12 07:44:13;;;;;;;4.20;2.25;;;23.50;55.80;;;;;;4123616;28;20034;-41
2023/02/12 07:46:39;;;;;;;4.63;2.15;;;23.50;55.90;;;;;;4122545;28;20049;-41
2023/02/12 07:49:04;;;;;;;3.97;2.53;;;23.40;55.90;;;;;;4134288;28;20038;-41
2023/02/12 07:51:31;;;;;;;4.60;2.38;;;23.30;55.70;;;;;;4132461;28;20104;-42
2023/02/12 07:53:54;;;;;;;3.78;2.20;;;23.30;55.20;;;;;;4137526;28;20044;-41
2023/02/12 07:56:22;;;;;;;5.25;2.00;;;23.20;56.10;;;;;;4133393;28;20046;-41
2023/02/12 07:58:46;;;;;;;4.55;2.72;;;23.10;55.90;;;;;;4127029;28;20085;-41
2023/02/12 08:01:27;;;;;;;5.03;3.03;;;23.10;55.60;;;;;;4136667;28;20037;-44
2023/02/12 08:03:50;;;;;;;8.35;4.65;;;23.00;56.20;;;;;;4130804;28;20046;-41
2023/02/12 08:06:16;;;;;;;11.18;6.80;;;23.00;56.20;;;;;;4134866;28;20042;-41
2023/02/12 08:08:39;;;;;;;10.45;6.65;;;22.90;56.30;;;;;;4132985;28;20033;-43
2023/02/12 08:11:01;;;;;;;12.50;6.63;;;22.80;56.10;;;;;;4143891;28;20409;-40
2023/02/12 08:13:23;;;;;;;10.65;5.82;;;22.80;56.50;;;;;;4138832;28;20657;-44
2023/02/12 08:15:46;;;;;;;10.55;6.32;;;22.70;56.40;;;;;;4139688;28;20029;-41
2023/02/12 08:18:08;;;;;;;8.85;6.10;;;22.60;56.10;;;;;;4133850;28;20073;-41
2023/02/12 08:20:33;;;;;;;6.53;4.60;;;22.60;56.70;;;;;;4141327;28;20044;-42
2023/02/12 08:22:55;;;;;;;8.85;4.75;;;22.50;56.70;;;;;;4138085;28;20040;-42
2023/02/12 08:25:17;;;;;;;7.32;4.45;;;22.50;56.70;;;;;;4142284;28;20048;-42
2023/02/12 08:27:41;;;;;;;6.18;3.90;;;22.40;56.80;;;;;;4142269;28;20422;-42
2023/02/12 08:30:04;;;;;;;6.47;4.18;;;22.30;56.90;;;;;;4146025;28;20037;-41
2023/02/12 08:32:28;;;;;;;5.68;3.60;;;22.30;56.60;;;;;;4133885;28;20306;-44
2023/02/12 08:34:50;;;;;;;;;;;22.20;56.70;;;;;;4141322;28;20033;-43
2023/02/12 08:37:12;;;;;;;4.70;3.05;;;22.20;57.00;;;;;;4142352;28;19981;-41
2023/02/12 08:39:34;;;;;;;5.35;3.13;;;22.10;56.90;;;;;;4131761;28;20528;-41
2023/02/12 08:41:58;;;;;;;4.90;2.92;;;22.10;57.20;;;;;;4139272;28;20030;-44
2023/02/12 08:44:20;;;;;;;;;;;22.00;57.10;;;;;;4130051;28;20362;-43
2023/02/12 08:46:50;;;;;;;5.53;3.10;;;22.00;57.50;;;;;;4137665;28;20373;-47
2023/02/12 08:49:16;;;;;;;5.32;2.80;;;21.90;57.20;;;;;;4135263;28;20118;-42
2023/02/12 08:51:44;;;;;;;4.45;2.85;;;21.90;57.20;;;;;;4139578;28;20057;-48
2023/02/12 08:54:11;;;;;;;5.45;2.70;;;21.80;57.30;;;;;;4139351;28;20045;-43
2023/02/12 08:56:35;;;;;;;4.07;2.30;;;21.70;56.80;;;;;;4136488;28;20413;-46
2023/02/12 08:58:58;;;;;;;4.35;2.30;;;21.70;57.30;;;;;;4132855;28;20042;-43
2023/02/12 09:01:23;;;;;;;4.18;2.40;;;21.60;57.00;;;;;;4140180;28;20501;-49
2023/02/12 09:03:47;;;;;;;3.92;2.40;;;21.60;57.10;;;;;;4134174;28;20037;-45
2023/02/12 09:06:10;;;;;;;4.38;2.38;;;21.50;57.20;;;;;;4134647;28;20049;-42
2023/02/12 09:08:32;;;;;;;3.90;2.28;;;21.50;57.30;;;;;;4133243;28;20489;-44
2023/02/12 09:10:55;;;;;;;4.78;2.47;;;21.40;57.10;;;;;;4136652;28;20073;-47
2023/02/12 09:13:17;;;;;;;3.63;2.28;;;21.30;57.30;;;;;;4128936;28;20038;-48
2023/02/12 09:15:44;;;;;;;3.60;2.20;;;21.30;57.50;;;;;;4133176;28;20034;-44
2023/02/12 09:18:07;;;;;;;4.38;2.15;;;21.20;58.00;;;;;;4130621;28;20077;-44
2023/02/12 09:20:30;;;;;;;2.97;1.90;;;21.20;57.80;;;;;;4132306;28;20046;-44
2023/02/12 09:22:53;;;;;;;3.67;2.00;;;21.10;57.40;;;;;;4133026;28;20029;-42
2023/02/12 09:25:15;;;;;;;4.43;2.55;;;21.10;57.50;;;;;;4130872;28;20497;-44
2023/02/12 09:27:38;;;;;;;4.85;2.08;;;21.00;57.60;;;;;;4132669;28;20537;-42
2023/02/12 09:30:00;;;;;;;3.72;2.05;;;21.00;57.60;;;;;;4131300;28;20054;-43
2023/02/12 09:32:22;;;;;;;3.28;2.10;;;21.00;57.40;;;;;;4132051;28;20034;-44
2023/02/12 09:34:45;;;;;;;4.30;2.30;;;20.90;57.60;;;;;;4132919;28;20157;-46
2023/02/12 09:37:07;;;;;;;3.78;1.98;;;20.90;57.60;;;;;;4134042;28;20332;-45
2023/02/12 09:39:31;;;;;;;3.65;2.10;;;20.90;57.90;;;;;;4131629;28;20427;-45
2023/02/12 09:42:11;;;;;;;4.80;2.00;;;20.80;57.80;;;;;;4134045;28;20050;-48
2023/02/12 09:44:43;;;;;;;4.60;2.25;;;20.70;57.70;;;;;;4136147;28;20042;-46
2023/02/12 09:47:28;;;;;;;4.20;2.00;;;20.70;58.00;;;;;;4134296;28;20517;-45
2023/02/12 09:50:33;;;;;;;3.30;2.00;;;20.70;58.10;;;;;;4131962;28;20038;-47
2023/02/12 09:52:58;;;;;;;3.10;1.75;;;20.60;58.20;;;;;;4132096;28;20112;-46
2023/02/12 09:55:25;;;;;;;3.70;2.17;;;20.50;58.20;;;;;;4131488;28;21561;-46
2023/02/12 09:57:47;;;;;;;3.55;1.83;;;20.50;58.10;;;;;;4132494;28;20594;-44
2023/02/12 10:00:15;;;;;;;3.40;2.22;;;20.40;58.00;;;;;;4128832;28;20050;-44
2023/02/12 10:02:39;;;;;;;3.83;1.92;;;20.40;58.20;;;;;;4135885;28;20420;-45
2023/02/12 10:05:03;;;;;;;4.22;2.28;;;20.40;58.10;;;;;;4134956;28;20618;-43
2023/02/12 10:07:56;;;;;;;4.13;1.73;;;20.30;58.10;;;;;;4132791;28;20041;-45
2023/02/12 10:10:42;;;;;;;4.00;2.10;;;20.30;58.10;;;;;;4128381;28;20067;-43
2023/02/12 10:13:13;;;;;;;3.30;2.03;;;20.20;58.90;;;;;;4127668;28;20156;-43
2023/02/12 10:15:45;;;;;;;3.00;1.70;;;20.30;58.70;;;;;;4131282;28;20041;-42
2023/02/12 10:18:28;;;;;;;5.35;2.40;;;20.40;59.00;;;;;;4130146;28;20119;-45
2023/02/12 10:21:09;;;;;;;2.90;1.45;;;20.50;59.40;;;;;;4130687;28;20430;-46
2023/02/12 10:23:47;;;;;;;4.03;1.83;;;20.60;60.00;;;;;;4127821;28;20042;-47
2023/02/12 10:26:18;;;;;;;2.47;1.50;;;20.70;60.20;;;;;;4132063;28;20038;-47
2023/02/12 10:28:42;;;;;;;4.05;1.70;;;20.90;60.60;;;;;;4132468;28;20611;-45
2023/02/12 10:31:12;;;;;;;4.95;2.17;;;21.00;60.80;;;;;;4127806;28;20415;-47
2023/02/12 10:33:51;;;;;;;3.85;1.77;;;21.10;61.00;;;;;;4133113;28;20041;-47
2023/02/12 10:36:35;;;;;;;4.25;1.50;;;21.20;61.60;;;;;;4133721;28;20124;-44
2023/02/12 10:39:13;;;;;;;3.47;1.40;;;21.30;61.10;;;;;;4129636;28;20071;-47
2023/02/12 10:41:44;;;;;;;3.35;1.73;;;21.40;61.30;;;;;;4130440;28;20044;-45
2023/02/12 10:44:08;;;;;;;2.97;1.50;;;21.50;61.40;;;;;;4133336;28;20120;-42
2023/02/12 10:46:31;;;;;;;3.33;1.60;;;21.60;61.50;;;;;;4128197;28;20498;-43
2023/02/12 10:48:57;;;;;;;4.25;1.67;;;21.70;61.50;;;;;;4131060;28;20041;-46
2023/02/12 10:51:41;;;;;;;1.75;1.40;;;21.80;61.40;;;;;;4130780;28;20034;-43
2023/02/12 10:54:42;;;;;;;2.42;1.17;;;21.90;61.40;;;;;;4131375;28;20080;-44
2023/02/12 10:57:11;;;;;;;3.05;1.50;;;21.90;62.20;;;;;;4099126;28;20050;-44
2023/02/12 10:59:33;;;;;;;6.07;1.88;;;22.10;61.60;;;;;;4131568;28;20037;-45
2023/02/12 11:01:56;;;;;;;3.42;1.60;;;22.10;61.70;;;;;;4130530;28;20039;-42
2023/02/12 11:04:30;;;;;;;2.58;1.40;;;22.20;61.20;;;;;;4130466;28;20038;-44
2023/02/12 11:07:12;;;;;;;2.28;1.20;;;22.30;61.60;;;;;;4131136;28;20389;-43
2023/02/12 11:09:47;;;;;;;2.55;1.20;;;22.30;61.60;;;;;;4133042;28;20038;-43
2023/02/12 11:12:23;;;;;;;2.67;1.50;;;22.40;61.40;;;;;;4134317;28;20046;-43
2023/02/12 11:14:52;;;;;;;2.50;1.30;;;22.50;61.50;;;;;;4130083;28;20066;-48
2023/02/12 11:17:25;;;;;;;3.33;1.27;;;22.50;61.40;;;;;;4137441;28;20058;-44
2023/02/12 11:20:16;;;;;;;2.97;1.45;;;22.60;61.40;;;;;;4129609;28;20832;-50
2023/02/12 11:22:59;;;;;;;3.72;1.52;;;22.60;61.50;;;;;;4123286;28;20097;-42
2023/02/12 11:25:28;;;;;;;4.70;1.73;;;22.70;61.90;;;;;;4123420;23;20042;-74
2023/02/12 11:28:01;;;;;;;4.35;1.58;;;22.80;62.40;;;;;;4131302;28;20034;-73
2023/02/12 11:30:27;;;;;;;8.50;2.28;;;22.90;62.80;;;;;;4132717;28;20038;-71
2023/02/12 11:32:51;;;;;;;6.35;1.50;;;23.00;62.80;;;;;;4134218;28;20448;-74
2023/02/12 11:35:34;;;;;;;2.40;1.10;;;23.10;62.90;;;;;;4133389;28;20034;-72
2023/02/12 11:38:01;;;;;;;6.67;1.80;;;23.10;62.50;;;;;;4132370;28;20110;-76
2023/02/12 11:40:25;;;;;;;6.05;1.35;;;23.20;62.60;;;;;;4135670;28;20031;-75
2023/02/12 11:42:58;;;;;;;4.70;1.38;;;23.30;62.50;;;;;;4134676;28;20123;-74
2023/02/12 11:45:24;;;;;;;6.00;1.70;;;23.30;62.50;;;;;;4133846;28;20041;-75
2023/02/12 11:47:47;;;;;;;2.17;1.38;;;23.40;62.60;;;;;;4134174;28;20128;-74
2023/02/12 11:50:29;;;;;;;4.70;1.30;;;23.50;62.60;;;;;;4135339;28;20053;-75
2023/02/12 11:52:53;;;;;;;4.72;1.70;;;23.50;62.50;;;;;;4136279;28;20047;-66
2023/02/12 11:55:39;;;;;;;6.32;1.58;;;23.60;62.50;;;;;;4116482;28;20030;-67
2023/02/12 11:58:24;;;;;;;7.78;1.90;;;23.60;62.40;;;;;;4116960;28;20054;-66
2023/02/12 12:01:09;;;;;;;6.63;1.70;;;23.70;62.20;;;;;;4115655;28;20050;-66
2023/02/12 12:03:43;;;;;;;4.93;1.98;;;23.70;63.10;;;;;;4117414;28;20042;-67
2023/02/12 12:06:29;;;;;;;;;;;23.80;62.50;;;;;;4117096;28;20158;-67
2023/02/12 12:09:16;;;;;;;8.30;2.60;;;23.80;62.40;;;;;;4123014;28;19956;-68
2023/02/12 12:12:14;;;;;;;7.72;3.08;;;23.90;64.50;;;;;;4121777;28;20830;-65
2023/02/12 12:20:27;;;;;;;7.57;2.83;;;24.00;65.20;;;;;;4117787;28;20125;-69
2023/02/12 12:23:13;;;;;;;9.50;2.40;;;24.10;65.20;;;;;;4115902;28;20030;-66
2023/02/12 12:25:44;;;;;;;7.55;2.10;;;24.10;65.10;;;;;;4117503;28;20057;-67
2023/02/12 12:28:43;;;;;;;12.65;2.78;;;24.20;65.10;;;;;;4119272;28;20051;-65
2023/02/12 12:31:33;;;;;;;7.30;2.13;;;24.20;64.90;;;;;;4130204;28;20622;-66
2023/02/12 12:34:06;;;;;;;14.05;3.50;;;24.30;64.70;;;;;;4128958;28;20034;-69
2023/02/12 12:37:01;;;;;;;10.55;2.72;;;24.30;64.80;;;;;;4115313;28;20646;-65
2023/02/12 12:39:35;;;;;;;16.33;3.30;;;24.30;64.70;;;;;;4119819;28;20048;-67
2023/02/12 12:42:02;;;;;;;;;;;24.30;64.70;;;;;;4114539;28;20066;-67
2023/02/12 12:44:32;;;;;;;4.93;2.20;;;24.30;64.50;;;;;;4113696;28;19918;-67
2023/02/12 12:47:03;;;;;;;7.47;2.00;;;24.40;64.60;;;;;;4120442;28;20119;-67
2023/02/12 12:49:40;;;;;;;5.50;1.92;;;24.40;64.50;;;;;;4122006;28;20104;-67
2023/02/12 12:52:07;;;;;;;4.53;1.95;;;24.40;64.40;;;;;;4122422;28;20104;-66
2023/02/12 12:54:48;;;;;;;6.70;1.92;;;24.40;64.30;;;;;;4117274;28;20046;-66
2023/02/12 12:57:21;;;;;;;5.60;2.42;;;24.40;64.20;;;;;;4125732;28;20517;-68
2023/02/12 13:00:12;;;;;;;5.27;1.60;;;24.40;64.20;;;;;;4124220;28;20096;-67
2023/02/12 13:02:58;;;;;;;5.45;2.03;;;24.40;64.20;;;;;;4125623;28;20042;-67
2023/02/12 13:05:57;;;;;;;3.90;2.00;;;24.40;64.30;;;;;;4125261;28;20134;-67
2023/02/12 13:08:39;;;;;;;3.78;2.08;;;24.40;64.40;;;;;;4125872;28;20544;-66